createdAt,value
2022-08-16T00:01:59.909Z,100987.00
2022-08-16T00:04:40.107Z,100994.56
2022-08-16T00:07:12.301Z,100991.19
2022-08-16T00:09:41.895Z,100987.53
2022-08-16T00:12:11.649Z,100979.72
2022-08-16T00:14:47.313Z,100983.06
2022-08-16T00:17:18.945Z,100990.13
2022-08-16T00:19:53.369Z,100984.13
2022-08-16T00:22:27.920Z,100983.91
2022-08-16T00:24:57.647Z,100982.59
2022-08-16T00:27:27.544Z,100971.78
2022-08-16T00:30:19.083Z,100976.03
2022-08-16T00:32:52.806Z,100974.25
2022-08-16T00:35:30.764Z,100977.13
2022-08-16T00:38:41.092Z,100967.22
2022-08-16T00:40:57.479Z,100979.47
2022-08-16T00:43:43.274Z,100979.94
2022-08-16T00:46:34.299Z,100975.44
2022-08-16T00:49:17.657Z,100976.03
2022-08-16T00:51:54.902Z,100976.06
2022-08-16T00:54:27.847Z,100978.66
2022-08-16T00:57:00.478Z,100984.91
2022-08-16T00:59:34.282Z,100969.16
2022-08-16T01:02:30.072Z,100964.47
2022-08-16T01:05:10.311Z,100959.25
2022-08-16T01:07:51.965Z,100964.59
2022-08-16T01:10:32.852Z,100951.22
2022-08-16T01:13:33.122Z,100956.28
2022-08-16T01:16:20.256Z,100945.06
2022-08-16T01:19:19.235Z,100951.25
2022-08-16T01:22:47.408Z,100950.22
2022-08-16T01:24:55.396Z,100954.22
2022-08-16T01:27:34.510Z,100957.88
2022-08-16T01:30:19.248Z,100956.31
2022-08-16T01:33:01.580Z,100957.34
2022-08-16T01:35:37.049Z,100953.69
2022-08-16T01:38:28.073Z,100953.94
2022-08-16T01:41:05.769Z,100947.44
2022-08-16T01:43:38.860Z,100943.03
2022-08-16T01:46:37.732Z,100944.50
2022-08-16T01:49:19.476Z,100941.69
2022-08-16T01:51:54.911Z,100944.84
2022-08-16T01:54:34.702Z,100941.75
2022-08-16T01:57:09.648Z,100947.47
2022-08-16T01:59:42.582Z,100944.31
2022-08-16T02:02:26.768Z,100944.25
2022-08-16T02:05:00.968Z,100945.88
2022-08-16T02:07:32.272Z,100942.22
2022-08-16T02:10:02.166Z,100940.97
2022-08-16T02:12:52.156Z,100946.84
2022-08-16T02:15:40.281Z,100939.16
2022-08-16T02:18:13.469Z,100942.28
2022-08-16T02:20:53.535Z,100939.13
2022-08-16T02:23:24.563Z,100943.81
2022-08-16T02:25:54.811Z,100942.75
2022-08-16T02:28:32.698Z,100944.13
2022-08-16T02:31:08.146Z,100943.22
2022-08-16T02:33:43.572Z,100947.09
2022-08-16T02:36:48.070Z,100944.75
2022-08-16T02:39:26.904Z,100946.44
2022-08-16T02:42:00.135Z,100947.47
2022-08-16T02:44:29.453Z,100945.19
2022-08-16T02:46:59.084Z,100954.41
2022-08-16T02:49:59.269Z,100947.91
2022-08-16T02:52:24.722Z,100962.56
2022-08-16T02:55:04.185Z,100953.41
2022-08-16T02:57:34.310Z,100962.00
2022-08-16T03:00:33.799Z,100965.00
2022-08-16T03:02:58.102Z,100962.66
2022-08-16T03:05:30.866Z,100962.03
2022-08-16T03:08:03.145Z,100964.38
2022-08-16T03:10:39.116Z,100967.06
2022-08-16T03:13:12.536Z,100955.59
2022-08-16T03:15:45.968Z,100967.31
2022-08-16T03:18:34.438Z,100974.09
2022-08-16T03:21:10.435Z,100985.38
2022-08-16T03:23:43.839Z,100984.09
2022-08-16T03:26:14.916Z,100985.34
2022-08-16T03:28:47.723Z,100996.56
2022-08-16T03:31:18.594Z,100996.31
2022-08-16T03:33:47.784Z,100987.84
2022-08-16T03:36:31.168Z,101001.75
2022-08-16T03:39:14.852Z,101008.56
2022-08-16T03:41:50.063Z,101012.19
2022-08-16T03:44:43.526Z,101009.75
2022-08-16T03:47:13.419Z,101009.63
2022-08-16T03:49:52.892Z,101017.25
2022-08-16T03:52:29.962Z,101015.56
2022-08-16T03:55:05.444Z,101018.44
2022-08-16T03:57:40.534Z,101028.56
2022-08-16T04:00:20.433Z,101026.69
2022-08-16T04:03:10.359Z,101031.44
2022-08-16T04:05:54.047Z,101032.38
2022-08-16T04:08:27.020Z,101031.47
2022-08-16T04:11:02.008Z,101033.66
2022-08-16T04:14:00.960Z,101035.41
2022-08-16T04:16:27.292Z,101039.97
2022-08-16T04:19:06.353Z,101038.06
2022-08-16T04:21:46.035Z,101046.25
2022-08-16T04:24:22.074Z,101045.56
2022-08-16T04:26:59.064Z,101048.53
2022-08-16T04:29:46.170Z,101047.03
2022-08-16T04:32:18.060Z,101060.44
2022-08-16T04:34:53.367Z,101058.09
2022-08-16T04:37:22.824Z,101053.38
2022-08-16T04:39:58.341Z,101065.53
2022-08-16T04:42:29.810Z,101068.66
2022-08-16T04:45:05.557Z,101065.78
2022-08-16T04:47:36.673Z,101067.84
2022-08-16T04:50:23.864Z,101079.09
2022-08-16T04:53:03.110Z,101071.09
2022-08-16T04:55:38.122Z,101077.13
2022-08-16T04:58:45.902Z,101073.72
2022-08-16T05:01:01.555Z,101083.88
2022-08-16T05:03:33.307Z,101089.31
2022-08-16T05:06:05.020Z,101088.44
2022-08-16T05:08:36.596Z,101096.38
2022-08-16T05:11:14.867Z,101084.84
2022-08-16T05:13:47.988Z,101087.09
2022-08-16T05:16:30.018Z,101093.66
2022-08-16T05:19:16.295Z,101089.56
2022-08-16T05:22:05.786Z,101085.94
2022-08-16T05:24:38.968Z,101094.44
2022-08-16T05:27:11.071Z,101101.75
2022-08-16T05:30:00.082Z,101103.00
2022-08-16T05:32:39.483Z,101093.94
2022-08-16T05:35:17.215Z,101094.22
2022-08-16T05:38:30.941Z,101106.41
2022-08-16T05:41:02.317Z,101104.31
2022-08-16T05:43:43.702Z,101101.53
2022-08-16T05:46:30.300Z,101098.59
2022-08-16T05:49:10.727Z,101097.06
2022-08-16T05:51:45.770Z,101101.22
2022-08-16T05:54:24.741Z,101100.03
2022-08-16T05:56:58.070Z,101106.84
2022-08-16T05:59:30.731Z,101110.84
2022-08-16T06:02:00.364Z,101110.66
2022-08-16T06:04:35.875Z,101105.75
2022-08-16T06:07:24.896Z,101108.69
2022-08-16T06:10:10.542Z,101103.06
2022-08-16T06:12:40.722Z,101107.31
2022-08-16T06:15:16.602Z,101106.78
2022-08-16T06:17:47.427Z,101108.53
2022-08-16T06:20:34.877Z,101115.94
2022-08-16T06:23:24.885Z,101109.50
2022-08-16T06:25:59.809Z,101109.13
2022-08-16T06:28:36.126Z,101112.69
2022-08-16T06:31:12.464Z,101125.00
2022-08-16T06:33:45.660Z,101122.06
2022-08-16T06:36:17.699Z,101128.56
2022-08-16T06:38:57.410Z,101121.19
2022-08-16T06:41:40.231Z,101117.69
2022-08-16T06:44:20.918Z,101120.66
2022-08-16T06:46:56.371Z,101123.38
2022-08-16T06:49:26.429Z,101129.88
2022-08-16T06:52:02.627Z,101133.66
2022-08-16T06:54:37.686Z,101132.88
2022-08-16T06:57:16.483Z,101140.88
2022-08-16T06:59:52.314Z,101143.41
2022-08-16T07:02:34.167Z,101139.72
2022-08-16T07:05:14.962Z,101141.81
2022-08-16T07:07:54.106Z,101137.13
2022-08-16T07:10:27.998Z,101133.94
2022-08-16T07:13:03.910Z,101134.25
2022-08-16T07:15:50.070Z,101133.94
2022-08-16T07:18:25.549Z,101132.75
2022-08-16T07:20:59.950Z,101131.19
2022-08-16T07:23:36.961Z,101130.59
2022-08-16T07:26:25.284Z,101127.44
2022-08-16T07:28:58.526Z,101124.13
2022-08-16T07:31:37.622Z,101127.00
2022-08-16T07:34:12.645Z,101126.81
2022-08-16T07:36:42.504Z,101127.44
2022-08-16T07:39:15.787Z,101123.59
2022-08-16T07:41:47.100Z,101129.06
2022-08-16T07:44:17.223Z,101119.72
2022-08-16T07:46:55.594Z,101128.91
2022-08-16T07:49:26.586Z,101124.69
2022-08-16T07:52:20.166Z,101121.06
2022-08-16T07:54:53.323Z,101134.69
2022-08-16T07:57:24.779Z,101125.81
2022-08-16T07:59:57.404Z,101133.09
2022-08-16T08:02:27.272Z,101130.28
2022-08-16T08:04:59.472Z,101125.81
2022-08-16T08:07:33.314Z,101126.59
2022-08-16T08:10:11.097Z,101124.59
2022-08-16T08:12:41.669Z,101122.28
2022-08-16T08:15:15.034Z,101119.97
2022-08-16T08:17:55.632Z,101122.66
2022-08-16T08:20:35.306Z,101128.78
2022-08-16T08:23:09.236Z,101128.59
2022-08-16T08:25:54.102Z,101123.97
2022-08-16T08:28:28.111Z,101139.16
2022-08-16T08:31:04.498Z,101132.19
2022-08-16T08:33:39.969Z,101139.88
2022-08-16T08:36:22.312Z,101145.19
2022-08-16T08:38:56.086Z,101133.44
2022-08-16T08:41:30.492Z,101144.69
2022-08-16T08:44:29.043Z,101140.75
2022-08-16T08:47:00.770Z,101146.34
2022-08-16T08:49:46.258Z,101152.69
2022-08-16T08:52:34.775Z,101147.16
2022-08-16T08:55:13.051Z,101150.88
2022-08-16T08:57:46.750Z,101150.59
2022-08-16T09:00:50.262Z,101139.28
2022-08-16T09:03:22.919Z,101146.69
2022-08-16T09:05:52.660Z,101142.63
2022-08-16T09:08:26.477Z,101147.13
2022-08-16T09:11:07.358Z,101147.84
2022-08-16T09:13:48.306Z,101137.59
2022-08-16T09:17:03.157Z,101144.72
2022-08-16T09:21:43.931Z,101146.31
2022-08-16T09:24:19.862Z,101145.91
2022-08-16T09:27:03.873Z,101148.38
2022-08-16T09:29:44.829Z,101136.66
2022-08-16T09:32:28.619Z,101146.31
2022-08-16T09:35:02.399Z,101150.25
2022-08-16T09:37:36.283Z,101147.88
2022-08-16T09:40:29.382Z,101148.13
2022-08-16T09:42:59.717Z,101153.25
2022-08-16T09:45:29.832Z,101155.59
2022-08-16T09:47:59.641Z,101149.09
2022-08-16T09:50:36.703Z,101154.84
2022-08-16T09:53:21.966Z,101161.66
2022-08-16T09:55:56.728Z,101152.59
2022-08-16T09:58:40.687Z,101161.03
2022-08-16T10:01:11.823Z,101168.72
2022-08-16T10:04:02.333Z,101168.72
2022-08-16T10:06:33.522Z,101170.66
2022-08-16T10:09:11.296Z,101179.25
2022-08-16T10:12:10.955Z,101186.59
2022-08-16T10:14:47.122Z,101168.13
2022-08-16T10:17:16.321Z,101170.00
2022-08-16T10:19:50.357Z,101180.19
2022-08-16T10:22:23.091Z,101172.06
2022-08-16T10:24:55.989Z,101176.38
2022-08-16T10:27:45.804Z,101185.00
2022-08-16T10:30:25.946Z,101190.94
2022-08-16T10:32:57.660Z,101196.56
2022-08-16T10:35:33.084Z,101196.56
2022-08-16T10:38:06.347Z,101199.34
2022-08-16T10:40:36.604Z,101210.66
2022-08-16T10:43:08.244Z,101200.28
2022-08-16T10:45:37.839Z,101203.00
2022-08-16T10:48:27.319Z,101205.31
2022-08-16T10:50:59.251Z,101207.28
2022-08-16T10:53:32.495Z,101202.16
2022-08-16T10:56:55.456Z,101195.78
2022-08-16T11:07:43.771Z,101195.56
2022-08-16T11:11:04.877Z,101210.56
2022-08-16T11:15:58.584Z,101209.09
2022-08-16T11:19:04.430Z,101213.81
2022-08-16T11:21:29.163Z,101218.19
2022-08-16T11:23:59.894Z,101214.28
2022-08-16T11:26:30.993Z,101219.06
2022-08-16T11:29:15.424Z,101214.66
2022-08-16T11:31:54.107Z,101220.72
2022-08-16T11:34:23.592Z,101207.56
2022-08-16T11:37:01.218Z,101205.16
2022-08-16T11:39:31.896Z,101209.28
2022-08-16T11:42:03.575Z,101219.72
2022-08-16T11:44:56.227Z,101214.09
2022-08-16T11:47:26.362Z,101211.69
2022-08-16T11:49:55.407Z,101210.09
2022-08-16T11:52:25.800Z,101220.47
2022-08-16T11:55:00.147Z,101216.13
2022-08-16T11:57:29.575Z,101206.97
2022-08-16T12:00:02.079Z,101212.22
2022-08-16T12:02:40.277Z,101212.25
2022-08-16T12:05:16.956Z,101211.09
2022-08-16T12:07:46.705Z,101219.94
2022-08-16T12:10:19.369Z,101215.97
2022-08-16T12:12:48.591Z,101220.78
2022-08-16T12:15:21.725Z,101221.19
2022-08-16T12:17:51.371Z,101215.16
2022-08-16T12:20:24.434Z,101213.53
2022-08-16T12:22:57.738Z,101213.59
2022-08-16T12:25:29.844Z,101212.81
2022-08-16T12:27:59.711Z,101213.28
2022-08-16T12:30:38.818Z,101217.28
2022-08-16T12:33:11.473Z,101212.13
2022-08-16T12:35:41.326Z,101212.16
2022-08-16T12:38:40.776Z,101217.72
2022-08-16T12:41:00.577Z,101218.47
2022-08-16T12:43:31.299Z,101221.31
2022-08-16T12:46:02.094Z,101232.53
2022-08-16T12:48:52.602Z,101225.03
2022-08-16T12:51:25.213Z,101222.72
2022-08-16T12:54:05.274Z,101221.13
2022-08-16T12:56:37.634Z,101216.31
2022-08-16T12:59:11.394Z,101209.03
2022-08-16T13:01:42.675Z,101208.34
2022-08-16T13:04:20.936Z,101208.34
2022-08-16T13:06:53.893Z,101216.81
2022-08-16T13:09:28.952Z,101212.41
2022-08-16T13:12:16.409Z,101222.03
2022-08-16T13:14:47.218Z,101218.44
2022-08-16T13:17:26.502Z,101222.03
2022-08-16T13:20:08.130Z,101212.50
2022-08-16T13:22:44.448Z,101217.69
2022-08-16T13:25:21.157Z,101232.06
2022-08-16T13:28:02.950Z,101235.66
2022-08-16T13:30:43.665Z,101241.97
2022-08-16T13:33:27.654Z,101247.22
2022-08-16T13:36:01.287Z,101235.66
2022-08-16T13:38:36.437Z,101242.84
2022-08-16T13:41:13.249Z,101234.84
2022-08-16T13:43:43.372Z,101246.81
2022-08-16T13:46:12.316Z,101245.19
2022-08-16T13:48:44.138Z,101239.16
2022-08-16T13:51:18.405Z,101247.56
2022-08-16T13:53:59.987Z,101245.97
2022-08-16T13:56:39.916Z,101251.47
2022-08-16T13:59:20.414Z,101252.25
2022-08-16T14:01:54.915Z,101247.47
2022-08-16T14:04:35.256Z,101243.13
2022-08-16T14:07:08.683Z,101248.38
2022-08-16T14:09:38.631Z,101236.22
2022-08-16T14:12:18.639Z,101235.66
2022-08-16T14:14:50.835Z,101236.78
2022-08-16T14:17:22.437Z,101241.09
2022-08-16T14:19:52.579Z,101240.72
2022-08-16T14:22:35.952Z,101243.59
2022-08-16T14:25:20.069Z,101239.56
2022-08-16T14:27:52.327Z,101238.03
2022-08-16T14:30:23.911Z,101239.84
2022-08-16T14:32:54.638Z,101240.19
2022-08-16T14:35:48.206Z,101240.63
2022-08-16T14:38:23.915Z,101243.03
2022-08-16T14:40:55.204Z,101242.63
2022-08-16T14:43:29.877Z,101241.53
2022-08-16T14:46:00.062Z,101225.19
2022-08-16T14:48:29.353Z,101225.97
2022-08-16T14:50:58.684Z,101235.44
2022-08-16T14:53:28.898Z,101235.34
2022-08-16T14:56:02.875Z,101242.47
2022-08-16T14:58:34.642Z,101243.28
2022-08-16T15:01:09.849Z,101236.47
2022-08-16T15:03:44.733Z,101240.06
2022-08-16T15:06:19.906Z,101241.63
2022-08-16T15:08:49.214Z,101243.22
2022-08-16T15:11:20.116Z,101248.50
2022-08-16T15:13:51.734Z,101232.31
2022-08-16T15:16:22.129Z,101234.56
2022-08-16T15:19:02.171Z,101245.59
2022-08-16T15:21:31.691Z,101249.41
2022-08-16T15:24:01.258Z,101255.75
2022-08-16T15:26:44.628Z,101258.13
2022-08-16T15:29:14.507Z,101265.31
2022-08-16T15:31:48.289Z,101267.25
2022-08-16T15:34:19.023Z,101270.00
2022-08-16T15:36:51.539Z,101269.16
2022-08-16T15:39:31.775Z,101266.72
2022-08-16T15:42:11.788Z,101270.72
2022-08-16T15:44:58.400Z,101275.53
2022-08-16T15:47:29.968Z,101283.88
2022-08-16T15:49:59.586Z,101279.41
2022-08-16T15:52:35.645Z,101276.13
2022-08-16T15:55:13.364Z,101268.06
2022-08-16T15:57:53.773Z,101268.78
2022-08-16T16:00:26.740Z,101272.25
2022-08-16T16:03:09.140Z,101273.09
2022-08-16T16:05:40.464Z,101273.38
2022-08-16T16:08:16.054Z,101270.97
2022-08-16T16:10:58.132Z,101271.03
2022-08-16T16:13:27.981Z,101277.72
2022-08-16T16:16:03.623Z,101282.25
2022-08-16T16:18:35.472Z,101288.00
2022-08-16T16:21:10.045Z,101291.03
2022-08-16T16:23:53.786Z,101297.94
2022-08-16T16:26:24.907Z,101299.41
2022-08-16T16:29:08.213Z,101296.53
2022-08-16T16:31:51.412Z,101293.00
2022-08-16T16:34:32.217Z,101294.75
2022-08-16T16:37:03.059Z,101296.84
2022-08-16T16:39:34.422Z,101298.94
2022-08-16T16:42:06.053Z,101303.56
2022-08-16T16:44:36.390Z,101302.00
2022-08-16T16:47:07.759Z,101305.16
2022-08-16T16:49:41.808Z,101315.06
2022-08-16T16:52:14.499Z,101315.06
2022-08-16T16:55:05.783Z,101310.81
2022-08-16T16:57:54.941Z,101326.03
2022-08-16T17:00:26.644Z,101315.38
2022-08-16T17:02:59.717Z,101312.91
2022-08-16T17:05:32.826Z,101309.41
2022-08-16T17:08:03.315Z,101299.66
2022-08-16T17:10:46.009Z,101301.09
2022-08-16T17:13:19.580Z,101313.78
2022-08-16T17:15:52.376Z,101299.19
2022-08-16T17:19:14.840Z,101301.41
2022-08-16T17:21:12.655Z,101302.06
2022-08-16T17:23:59.387Z,101301.75
2022-08-16T17:26:31.015Z,101300.53
2022-08-16T17:31:51.216Z,101307.41
2022-08-16T17:34:29.224Z,101310.59
2022-08-16T17:37:08.105Z,101310.47
2022-08-16T17:39:28.443Z,101310.75
2022-08-16T17:39:58.242Z,101302.31
2022-08-16T17:42:27.429Z,101296.69
2022-08-16T17:44:56.469Z,101310.59
2022-08-16T17:47:25.784Z,101307.59
2022-08-16T17:49:54.820Z,101301.66
2022-08-16T17:52:23.953Z,101300.53
2022-08-16T17:54:52.988Z,101307.22
2022-08-16T17:57:22.053Z,101302.44
2022-08-16T17:59:51.056Z,101300.38
2022-08-16T18:02:43.632Z,101302.91
2022-08-16T18:05:16.914Z,101299.75
2022-08-16T18:07:46.225Z,101298.81
2022-08-16T18:10:23.706Z,101301.97
2022-08-16T18:13:02.869Z,101296.34
2022-08-16T18:15:33.602Z,101297.69
2022-08-16T18:18:03.277Z,101292.84
2022-08-16T18:20:55.486Z,101286.66
2022-08-16T18:23:27.132Z,101287.34
2022-08-16T18:25:59.624Z,101286.63
2022-08-16T18:28:30.530Z,101286.50
2022-08-16T18:31:01.066Z,101282.56
2022-08-16T18:33:43.385Z,101275.38
2022-08-16T18:36:21.049Z,101284.47
2022-08-16T18:38:51.431Z,101276.22
2022-08-16T18:41:23.143Z,101274.84
2022-08-16T18:44:23.058Z,101275.53
2022-08-16T18:46:44.539Z,101264.38
2022-08-16T18:49:17.990Z,101277.28
2022-08-16T18:51:47.577Z,101270.28
2022-08-16T18:54:18.877Z,101263.78
2022-08-16T18:56:55.269Z,101262.06
2022-08-16T18:59:29.099Z,101259.66
2022-08-16T19:02:04.982Z,101262.72
2022-08-16T19:04:50.420Z,101257.34
2022-08-16T19:07:30.933Z,101255.03
2022-08-16T19:10:02.812Z,101256.09
2022-08-16T19:12:38.071Z,101246.91
2022-08-16T19:15:18.879Z,101248.19
2022-08-16T19:17:48.606Z,101233.44
2022-08-16T19:20:20.342Z,101239.72
2022-08-16T19:23:09.965Z,101238.63
2022-08-16T19:25:47.439Z,101229.81
2022-08-16T19:28:50.755Z,101223.31
2022-08-16T19:31:20.504Z,101224.94
2022-08-16T19:33:54.943Z,101227.09
2022-08-16T19:36:31.244Z,101219.69
2022-08-16T19:39:05.788Z,101220.19
2022-08-16T19:41:37.722Z,101221.09
2022-08-16T19:44:07.785Z,101216.66
2022-08-16T19:46:37.806Z,101209.16
2022-08-16T19:49:07.409Z,101207.53
2022-08-16T19:51:37.708Z,101202.66
2022-08-16T19:54:07.293Z,101203.81
2022-08-16T19:56:36.243Z,101206.25
2022-08-16T19:59:22.219Z,101194.81
2022-08-16T20:01:54.521Z,101194.97
2022-08-16T20:04:25.350Z,101197.06
2022-08-16T20:06:55.598Z,101194.88
2022-08-16T20:09:25.682Z,101198.25
2022-08-16T20:11:55.662Z,101192.44
2022-08-16T20:14:26.434Z,101190.47
2022-08-16T20:16:58.283Z,101188.28
2022-08-16T20:19:35.193Z,101182.50
2022-08-16T20:22:42.123Z,101182.06
2022-08-16T20:25:12.223Z,101179.25
2022-08-16T20:27:42.222Z,101182.13
2022-08-16T20:30:14.906Z,101183.97
2022-08-16T20:32:45.589Z,101182.41
2022-08-16T20:35:17.745Z,101177.56
2022-08-16T20:37:48.408Z,101175.69
2022-08-16T20:40:33.786Z,101177.75
2022-08-16T20:43:08.605Z,101172.81
2022-08-16T20:45:39.711Z,101164.69
2022-08-16T20:48:09.335Z,101164.34
2022-08-16T20:50:38.754Z,101163.72
2022-08-16T20:53:08.649Z,101158.84
2022-08-16T20:55:40.886Z,101155.66
2022-08-16T20:58:10.093Z,101159.72
2022-08-16T21:00:39.308Z,101152.34
2022-08-16T21:03:09.946Z,101160.31
2022-08-16T21:05:39.315Z,101159.56
2022-08-16T21:08:50.024Z,101151.19
2022-08-16T21:10:59.162Z,101148.81
2022-08-16T21:13:31.989Z,101152.50
2022-08-16T21:16:03.526Z,101153.00
2022-08-16T21:18:32.701Z,101150.91
2022-08-16T21:21:01.768Z,101143.03
2022-08-16T21:23:30.997Z,101147.59
2022-08-16T21:26:00.380Z,101140.63
2022-08-16T21:28:38.764Z,101140.66
2022-08-16T21:31:15.266Z,101138.50
2022-08-16T21:33:54.841Z,101132.09
2022-08-16T21:36:34.879Z,101124.66
2022-08-16T21:39:07.108Z,101121.97
2022-08-16T21:41:38.833Z,101131.00
2022-08-16T21:44:08.146Z,101127.50
2022-08-16T21:46:37.116Z,101125.78
2022-08-16T21:49:06.732Z,101118.38
2022-08-16T21:51:37.117Z,101116.03
2022-08-16T21:54:06.365Z,101119.09
2022-08-16T21:56:35.420Z,101118.88
2022-08-16T21:59:11.624Z,101105.25
2022-08-16T22:01:42.975Z,101105.34
2022-08-16T22:04:37.361Z,101104.09
2022-08-16T22:07:02.516Z,101103.91
2022-08-16T22:09:31.515Z,101098.25
2022-08-16T22:12:00.747Z,101101.00
2022-08-16T22:14:29.787Z,101097.03
2022-08-16T22:16:59.085Z,101093.47
2022-08-16T22:19:28.124Z,101091.44
2022-08-16T22:21:57.237Z,101085.28
2022-08-16T22:24:26.311Z,101084.31
2022-08-16T22:26:55.508Z,101071.41
2022-08-16T22:29:24.956Z,101077.56
2022-08-16T22:31:54.054Z,101075.69
2022-08-16T22:34:23.170Z,101079.09
2022-08-16T22:36:52.472Z,101073.31
2022-08-16T22:39:21.608Z,101073.66
2022-08-16T22:41:51.346Z,101077.75
2022-08-16T22:44:20.562Z,101067.19
2022-08-16T22:46:50.035Z,101073.44
2022-08-16T22:49:19.206Z,101073.72
2022-08-16T22:51:48.544Z,101060.19
2022-08-16T22:54:47.371Z,101064.03
2022-08-16T22:57:06.888Z,101063.00
2022-08-16T22:59:36.829Z,101062.50
2022-08-16T23:02:08.202Z,101067.19
2022-08-16T23:04:38.270Z,101065.63
2022-08-16T23:07:07.578Z,101069.00
2022-08-16T23:09:37.501Z,101063.75
2022-08-16T23:12:08.304Z,101064.06
2022-08-16T23:14:37.341Z,101063.50
2022-08-16T23:17:06.530Z,101054.38
2022-08-16T23:19:35.732Z,101055.47
2022-08-16T23:22:05.227Z,101049.47
2022-08-16T23:24:37.235Z,101048.44
2022-08-16T23:27:23.926Z,101047.94
2022-08-16T23:29:53.451Z,101043.50
2022-08-16T23:32:22.451Z,101045.56
2022-08-16T23:34:53.141Z,101041.69
2022-08-16T23:37:23.486Z,101041.69
2022-08-16T23:39:54.556Z,101041.69
2022-08-16T23:42:41.847Z,101041.44
2022-08-16T23:45:13.644Z,101045.63
2022-08-16T23:47:42.758Z,101023.22
2022-08-16T23:50:12.227Z,101038.03
2022-08-16T23:53:08.589Z,101029.19
2022-08-16T23:55:46.428Z,101036.47
2022-08-16T23:58:18.202Z,101031.28
